sensor_id;sensor_type;location;lat;lon;timestamp;temperature;humidity
13482;DHT22;6813;60.352;15.746;2024-03-02T00:01:34;3.70;99.90
13482;DHT22;6813;60.352;15.746;2024-03-02T00:04:00;3.60;99.90
13482;DHT22;6813;60.352;15.746;2024-03-02T00:06:28;3.50;99.90
13482;DHT22;6813;60.352;15.746;2024-03-02T00:08:57;3.40;99.90
13482;DHT22;6813;60.352;15.746;2024-03-02T00:11:24;3.40;99.90
13482;DHT22;6813;60.352;15.746;2024-03-02T00:13:52;3.50;99.90
13482;DHT22;6813;60.352;15.746;2024-03-02T00:16:18;3.50;99.90
13482;DHT22;6813;60.352;15.746;2024-03-02T00:18:45;3.50;99.90
13482;DHT22;6813;60.352;15.746;2024-03-02T00:21:12;3.50;99.90
13482;DHT22;6813;60.352;15.746;2024-03-02T00:23:41;3.50;99.90
13482;DHT22;6813;60.352;15.746;2024-03-02T00:26:11;3.50;99.90
13482;DHT22;6813;60.352;15.746;2024-03-02T00:28:39;3.50;99.90
13482;DHT22;6813;60.352;15.746;2024-03-02T00:31:12;3.50;99.90
13482;DHT22;6813;60.352;15.746;2024-03-02T00:33:45;3.50;99.90
13482;DHT22;6813;60.352;15.746;2024-03-02T00:36:16;3.40;99.90
13482;DHT22;6813;60.352;15.746;2024-03-02T00:38:49;3.40;99.90
13482;DHT22;6813;60.352;15.746;2024-03-02T00:41:29;3.40;99.90
13482;DHT22;6813;60.352;15.746;2024-03-02T00:44:06;3.40;99.90
13482;DHT22;6813;60.352;15.746;2024-03-02T00:46:44;3.40;99.90
13482;DHT22;6813;60.352;15.746;2024-03-02T00:49:23;3.40;99.90
13482;DHT22;6813;60.352;15.746;2024-03-02T00:51:51;3.30;99.90
13482;DHT22;6813;60.352;15.746;2024-03-02T00:54:22;3.40;99.90
13482;DHT22;6813;60.352;15.746;2024-03-02T00:56:50;3.40;99.90
13482;DHT22;6813;60.352;15.746;2024-03-02T00:59:16;3.40;99.90
13482;DHT22;6813;60.352;15.746;2024-03-02T01:01:42;3.50;99.90
13482;DHT22;6813;60.352;15.746;2024-03-02T01:04:08;3.60;99.90
13482;DHT22;6813;60.352;15.746;2024-03-02T01:06:35;3.60;99.90
13482;DHT22;6813;60.352;15.746;2024-03-02T01:09:01;3.80;99.90
13482;DHT22;6813;60.352;15.746;2024-03-02T01:11:28;3.80;99.90
13482;DHT22;6813;60.352;15.746;2024-03-02T01:13:54;3.80;99.90
13482;DHT22;6813;60.352;15.746;2024-03-02T01:16:20;3.70;99.90
13482;DHT22;6813;60.352;15.746;2024-03-02T01:18:46;3.70;99.90
13482;DHT22;6813;60.352;15.746;2024-03-02T01:21:12;3.70;99.90
13482;DHT22;6813;60.352;15.746;2024-03-02T01:23:37;3.80;99.90
13482;DHT22;6813;60.352;15.746;2024-03-02T01:26:05;3.90;99.90
13482;DHT22;6813;60.352;15.746;2024-03-02T01:28:31;3.90;99.90
13482;DHT22;6813;60.352;15.746;2024-03-02T01:30:56;4.00;99.90
13482;DHT22;6813;60.352;15.746;2024-03-02T01:33:22;4.20;99.90
13482;DHT22;6813;60.352;15.746;2024-03-02T01:35:48;4.30;99.90
13482;DHT22;6813;60.352;15.746;2024-03-02T01:38:14;4.20;99.90
13482;DHT22;6813;60.352;15.746;2024-03-02T01:40:42;4.20;99.90
13482;DHT22;6813;60.352;15.746;2024-03-02T01:43:09;4.30;99.90
13482;DHT22;6813;60.352;15.746;2024-03-02T01:45:35;4.40;99.90
13482;DHT22;6813;60.352;15.746;2024-03-02T01:48:06;4.40;99.90
13482;DHT22;6813;60.352;15.746;2024-03-02T01:50:33;4.40;99.90
13482;DHT22;6813;60.352;15.746;2024-03-02T01:53:00;4.50;99.90
13482;DHT22;6813;60.352;15.746;2024-03-02T01:55:26;4.40;99.90
13482;DHT22;6813;60.352;15.746;2024-03-02T01:57:54;4.40;99.90
13482;DHT22;6813;60.352;15.746;2024-03-02T02:00:21;4.40;99.90
13482;DHT22;6813;60.352;15.746;2024-03-02T02:02:47;4.30;99.90
13482;DHT22;6813;60.352;15.746;2024-03-02T02:05:14;4.30;99.90
13482;DHT22;6813;60.352;15.746;2024-03-02T02:07:40;4.30;99.90
13482;DHT22;6813;60.352;15.746;2024-03-02T02:10:09;4.20;99.90
13482;DHT22;6813;60.352;15.746;2024-03-02T02:12:35;4.20;99.90
13482;DHT22;6813;60.352;15.746;2024-03-02T02:15:04;4.40;99.90
13482;DHT22;6813;60.352;15.746;2024-03-02T02:17:31;4.50;99.90
13482;DHT22;6813;60.352;15.746;2024-03-02T02:19:57;4.50;99.90
13482;DHT22;6813;60.352;15.746;2024-03-02T02:22:23;4.60;99.90
13482;DHT22;6813;60.352;15.746;2024-03-02T02:24:49;4.70;99.90
13482;DHT22;6813;60.352;15.746;2024-03-02T02:27:15;4.70;99.90
13482;DHT22;6813;60.352;15.746;2024-03-02T02:29:41;4.80;99.90
13482;DHT22;6813;60.352;15.746;2024-03-02T02:32:07;4.80;99.90
13482;DHT22;6813;60.352;15.746;2024-03-02T02:34:34;4.90;99.90
13482;DHT22;6813;60.352;15.746;2024-03-02T02:37:01;4.90;99.90
13482;DHT22;6813;60.352;15.746;2024-03-02T02:39:27;4.90;99.90
13482;DHT22;6813;60.352;15.746;2024-03-02T02:41:53;4.80;99.90
13482;DHT22;6813;60.352;15.746;2024-03-02T02:44:19;4.80;99.90
13482;DHT22;6813;60.352;15.746;2024-03-02T02:46:49;4.90;99.90
13482;DHT22;6813;60.352;15.746;2024-03-02T02:49:14;5.00;99.90
13482;DHT22;6813;60.352;15.746;2024-03-02T02:51:40;5.00;99.90
13482;DHT22;6813;60.352;15.746;2024-03-02T02:54:06;5.10;99.90
13482;DHT22;6813;60.352;15.746;2024-03-02T02:56:31;5.20;99.90
13482;DHT22;6813;60.352;15.746;2024-03-02T02:58:57;5.20;99.90
13482;DHT22;6813;60.352;15.746;2024-03-02T03:01:25;5.10;99.90
13482;DHT22;6813;60.352;15.746;2024-03-02T03:03:52;5.20;99.90
13482;DHT22;6813;60.352;15.746;2024-03-02T03:06:18;5.20;99.90
13482;DHT22;6813;60.352;15.746;2024-03-02T03:08:43;5.20;99.90
13482;DHT22;6813;60.352;15.746;2024-03-02T03:11:09;5.20;99.90
13482;DHT22;6813;60.352;15.746;2024-03-02T03:13:35;5.30;99.90
13482;DHT22;6813;60.352;15.746;2024-03-02T03:16:02;5.30;99.90
13482;DHT22;6813;60.352;15.746;2024-03-02T03:18:28;5.30;99.90
13482;DHT22;6813;60.352;15.746;2024-03-02T03:20:54;5.30;99.90
13482;DHT22;6813;60.352;15.746;2024-03-02T03:23:20;5.30;99.90
13482;DHT22;6813;60.352;15.746;2024-03-02T03:25:46;5.30;99.90
13482;DHT22;6813;60.352;15.746;2024-03-02T03:28:13;5.30;99.90
13482;DHT22;6813;60.352;15.746;2024-03-02T03:30:39;5.30;99.90
13482;DHT22;6813;60.352;15.746;2024-03-02T03:33:05;5.30;99.90
13482;DHT22;6813;60.352;15.746;2024-03-02T03:35:32;5.30;99.90
13482;DHT22;6813;60.352;15.746;2024-03-02T03:37:58;5.30;99.90
13482;DHT22;6813;60.352;15.746;2024-03-02T03:40:24;5.40;99.90
13482;DHT22;6813;60.352;15.746;2024-03-02T03:42:49;5.40;99.90
13482;DHT22;6813;60.352;15.746;2024-03-02T03:45:16;5.40;99.90
13482;DHT22;6813;60.352;15.746;2024-03-02T03:47:41;5.40;99.90
13482;DHT22;6813;60.352;15.746;2024-03-02T03:50:07;5.40;99.90
13482;DHT22;6813;60.352;15.746;2024-03-02T03:52:33;5.50;99.90
13482;DHT22;6813;60.352;15.746;2024-03-02T03:54:59;5.40;99.90
13482;DHT22;6813;60.352;15.746;2024-03-02T03:57:26;5.40;99.90
13482;DHT22;6813;60.352;15.746;2024-03-02T03:59:52;5.40;99.90
13482;DHT22;6813;60.352;15.746;2024-03-02T04:02:18;5.50;99.90
13482;DHT22;6813;60.352;15.746;2024-03-02T04:04:44;5.50;99.90
13482;DHT22;6813;60.352;15.746;2024-03-02T04:07:11;5.40;99.90
13482;DHT22;6813;60.352;15.746;2024-03-02T04:09:38;5.40;99.90
13482;DHT22;6813;60.352;15.746;2024-03-02T04:12:04;5.50;99.90
13482;DHT22;6813;60.352;15.746;2024-03-02T04:14:30;5.50;99.90
13482;DHT22;6813;60.352;15.746;2024-03-02T04:16:55;5.40;99.90
13482;DHT22;6813;60.352;15.746;2024-03-02T04:19:21;5.50;99.90
13482;DHT22;6813;60.352;15.746;2024-03-02T04:21:46;5.40;99.90
13482;DHT22;6813;60.352;15.746;2024-03-02T04:24:12;5.40;99.90
13482;DHT22;6813;60.352;15.746;2024-03-02T04:26:38;5.40;99.90
13482;DHT22;6813;60.352;15.746;2024-03-02T04:29:04;5.40;99.90
13482;DHT22;6813;60.352;15.746;2024-03-02T04:31:29;5.40;99.90
13482;DHT22;6813;60.352;15.746;2024-03-02T04:33:55;5.40;99.90
13482;DHT22;6813;60.352;15.746;2024-03-02T04:36:21;5.30;99.90
13482;DHT22;6813;60.352;15.746;2024-03-02T04:38:49;5.30;99.90
13482;DHT22;6813;60.352;15.746;2024-03-02T04:41:15;5.40;99.90
13482;DHT22;6813;60.352;15.746;2024-03-02T04:43:42;5.40;99.90
13482;DHT22;6813;60.352;15.746;2024-03-02T04:46:08;5.40;99.90
13482;DHT22;6813;60.352;15.746;2024-03-02T04:48:34;5.40;99.90
13482;DHT22;6813;60.352;15.746;2024-03-02T04:50:59;5.40;99.90
13482;DHT22;6813;60.352;15.746;2024-03-02T04:53:25;5.50;99.90
13482;DHT22;6813;60.352;15.746;2024-03-02T04:55:51;5.50;99.90
13482;DHT22;6813;60.352;15.746;2024-03-02T04:58:19;5.50;99.90
13482;DHT22;6813;60.352;15.746;2024-03-02T05:00:46;5.50;99.90
13482;DHT22;6813;60.352;15.746;2024-03-02T05:03:13;5.40;99.90
13482;DHT22;6813;60.352;15.746;2024-03-02T05:05:42;5.40;99.90
13482;DHT22;6813;60.352;15.746;2024-03-02T05:08:07;5.40;99.90
13482;DHT22;6813;60.352;15.746;2024-03-02T05:10:33;5.40;99.90
13482;DHT22;6813;60.352;15.746;2024-03-02T05:12:58;5.40;99.90
13482;DHT22;6813;60.352;15.746;2024-03-02T05:15:25;5.40;99.90
13482;DHT22;6813;60.352;15.746;2024-03-02T05:17:51;5.40;99.90
13482;DHT22;6813;60.352;15.746;2024-03-02T05:20:17;5.50;99.90
13482;DHT22;6813;60.352;15.746;2024-03-02T05:22:44;5.50;99.90
13482;DHT22;6813;60.352;15.746;2024-03-02T05:25:10;5.50;99.90
13482;DHT22;6813;60.352;15.746;2024-03-02T05:27:36;5.50;99.90
13482;DHT22;6813;60.352;15.746;2024-03-02T05:30:01;5.50;99.90
13482;DHT22;6813;60.352;15.746;2024-03-02T05:32:27;5.50;99.90
13482;DHT22;6813;60.352;15.746;2024-03-02T05:34:53;5.60;99.90
13482;DHT22;6813;60.352;15.746;2024-03-02T05:37:19;5.60;99.90
13482;DHT22;6813;60.352;15.746;2024-03-02T05:39:45;5.50;99.90
13482;DHT22;6813;60.352;15.746;2024-03-02T05:42:11;5.50;99.90
13482;DHT22;6813;60.352;15.746;2024-03-02T05:44:36;5.40;99.90
13482;DHT22;6813;60.352;15.746;2024-03-02T05:47:03;5.50;99.90
13482;DHT22;6813;60.352;15.746;2024-03-02T05:49:29;5.50;99.90
13482;DHT22;6813;60.352;15.746;2024-03-02T05:51:55;5.50;99.90
13482;DHT22;6813;60.352;15.746;2024-03-02T05:54:20;5.50;99.90
13482;DHT22;6813;60.352;15.746;2024-03-02T05:56:46;5.50;99.90
13482;DHT22;6813;60.352;15.746;2024-03-02T05:59:12;5.60;99.90
13482;DHT22;6813;60.352;15.746;2024-03-02T06:01:47;5.60;99.90
13482;DHT22;6813;60.352;15.746;2024-03-02T06:04:13;5.60;99.90
13482;DHT22;6813;60.352;15.746;2024-03-02T06:06:40;5.70;99.90
13482;DHT22;6813;60.352;15.746;2024-03-02T06:09:06;5.60;99.90
13482;DHT22;6813;60.352;15.746;2024-03-02T06:11:36;5.60;99.90
13482;DHT22;6813;60.352;15.746;2024-03-02T06:14:06;5.70;99.90
13482;DHT22;6813;60.352;15.746;2024-03-02T06:16:32;5.70;99.90
13482;DHT22;6813;60.352;15.746;2024-03-02T06:18:58;5.70;99.90
13482;DHT22;6813;60.352;15.746;2024-03-02T06:21:25;5.70;99.90
13482;DHT22;6813;60.352;15.746;2024-03-02T06:23:51;5.80;99.90
13482;DHT22;6813;60.352;15.746;2024-03-02T06:26:16;5.70;99.90
13482;DHT22;6813;60.352;15.746;2024-03-02T06:28:42;5.70;99.90
13482;DHT22;6813;60.352;15.746;2024-03-02T06:31:08;5.70;99.90
13482;DHT22;6813;60.352;15.746;2024-03-02T06:33:34;5.70;99.90
13482;DHT22;6813;60.352;15.746;2024-03-02T06:36:00;5.70;99.90
13482;DHT22;6813;60.352;15.746;2024-03-02T06:38:26;5.70;99.90
13482;DHT22;6813;60.352;15.746;2024-03-02T06:40:52;5.60;99.90
13482;DHT22;6813;60.352;15.746;2024-03-02T06:43:17;5.70;99.90
13482;DHT22;6813;60.352;15.746;2024-03-02T06:45:43;5.70;99.90
13482;DHT22;6813;60.352;15.746;2024-03-02T06:48:09;5.70;99.90
13482;DHT22;6813;60.352;15.746;2024-03-02T06:50:34;5.60;99.90
13482;DHT22;6813;60.352;15.746;2024-03-02T06:53:00;5.60;99.90
13482;DHT22;6813;60.352;15.746;2024-03-02T06:55:26;5.60;99.90
13482;DHT22;6813;60.352;15.746;2024-03-02T06:57:51;5.60;99.90
13482;DHT22;6813;60.352;15.746;2024-03-02T07:00:18;5.60;99.90
13482;DHT22;6813;60.352;15.746;2024-03-02T07:02:45;5.60;99.90
13482;DHT22;6813;60.352;15.746;2024-03-02T07:05:11;5.70;99.90
13482;DHT22;6813;60.352;15.746;2024-03-02T07:07:37;5.70;99.90
13482;DHT22;6813;60.352;15.746;2024-03-02T07:10:04;5.70;99.90
13482;DHT22;6813;60.352;15.746;2024-03-02T07:12:30;5.70;99.90
13482;DHT22;6813;60.352;15.746;2024-03-02T07:14:57;5.70;99.90
13482;DHT22;6813;60.352;15.746;2024-03-02T07:17:29;5.70;99.90
13482;DHT22;6813;60.352;15.746;2024-03-02T07:19:55;5.60;99.90
13482;DHT22;6813;60.352;15.746;2024-03-02T07:22:20;5.50;99.90
13482;DHT22;6813;60.352;15.746;2024-03-02T07:24:47;5.60;99.90
13482;DHT22;6813;60.352;15.746;2024-03-02T07:27:13;5.60;99.90
13482;DHT22;6813;60.352;15.746;2024-03-02T07:29:39;5.50;99.90
13482;DHT22;6813;60.352;15.746;2024-03-02T07:32:06;5.40;99.90
13482;DHT22;6813;60.352;15.746;2024-03-02T07:34:32;5.40;99.90
13482;DHT22;6813;60.352;15.746;2024-03-02T07:36:58;5.40;99.90
13482;DHT22;6813;60.352;15.746;2024-03-02T07:39:25;5.30;99.90
13482;DHT22;6813;60.352;15.746;2024-03-02T07:41:51;5.30;99.90
13482;DHT22;6813;60.352;15.746;2024-03-02T07:44:17;5.30;99.90
13482;DHT22;6813;60.352;15.746;2024-03-02T07:46:45;5.40;99.90
13482;DHT22;6813;60.352;15.746;2024-03-02T07:49:18;5.30;99.90
13482;DHT22;6813;60.352;15.746;2024-03-02T07:51:44;5.40;99.90
13482;DHT22;6813;60.352;15.746;2024-03-02T07:54:11;5.20;99.90
13482;DHT22;6813;60.352;15.746;2024-03-02T07:56:37;5.10;99.90
13482;DHT22;6813;60.352;15.746;2024-03-02T07:59:03;5.00;99.90
13482;DHT22;6813;60.352;15.746;2024-03-02T08:01:30;5.00;99.90
13482;DHT22;6813;60.352;15.746;2024-03-02T08:04:01;4.90;99.90
13482;DHT22;6813;60.352;15.746;2024-03-02T08:06:29;4.80;99.90
13482;DHT22;6813;60.352;15.746;2024-03-02T08:08:57;4.70;99.90
13482;DHT22;6813;60.352;15.746;2024-03-02T08:11:23;4.80;99.90
13482;DHT22;6813;60.352;15.746;2024-03-02T08:13:49;5.00;99.90
13482;DHT22;6813;60.352;15.746;2024-03-02T08:16:16;5.20;99.90
13482;DHT22;6813;60.352;15.746;2024-03-02T08:18:44;5.20;99.90
13482;DHT22;6813;60.352;15.746;2024-03-02T08:21:10;5.30;99.90
13482;DHT22;6813;60.352;15.746;2024-03-02T08:23:35;5.40;99.90
13482;DHT22;6813;60.352;15.746;2024-03-02T08:26:03;5.30;99.90
13482;DHT22;6813;60.352;15.746;2024-03-02T08:28:29;5.40;99.90
13482;DHT22;6813;60.352;15.746;2024-03-02T08:30:55;5.50;99.90
13482;DHT22;6813;60.352;15.746;2024-03-02T08:33:22;5.60;99.90
13482;DHT22;6813;60.352;15.746;2024-03-02T08:35:48;5.60;99.90
13482;DHT22;6813;60.352;15.746;2024-03-02T08:38:13;5.60;99.90
13482;DHT22;6813;60.352;15.746;2024-03-02T08:40:39;5.70;99.90
13482;DHT22;6813;60.352;15.746;2024-03-02T08:43:05;5.70;99.90
13482;DHT22;6813;60.352;15.746;2024-03-02T08:45:31;5.70;99.90
13482;DHT22;6813;60.352;15.746;2024-03-02T08:47:57;5.40;99.90
13482;DHT22;6813;60.352;15.746;2024-03-02T08:50:23;5.30;99.90
13482;DHT22;6813;60.352;15.746;2024-03-02T08:52:49;5.30;99.90
13482;DHT22;6813;60.352;15.746;2024-03-02T08:55:15;5.20;99.90
13482;DHT22;6813;60.352;15.746;2024-03-02T08:57:41;5.20;99.90
13482;DHT22;6813;60.352;15.746;2024-03-02T09:00:08;5.10;99.90
13482;DHT22;6813;60.352;15.746;2024-03-02T09:02:34;5.10;99.90
13482;DHT22;6813;60.352;15.746;2024-03-02T09:05:00;5.20;99.90
13482;DHT22;6813;60.352;15.746;2024-03-02T09:07:26;5.10;99.90
13482;DHT22;6813;60.352;15.746;2024-03-02T09:09:53;4.80;99.90
13482;DHT22;6813;60.352;15.746;2024-03-02T09:12:19;4.90;99.90
13482;DHT22;6813;60.352;15.746;2024-03-02T09:14:46;5.00;99.90
13482;DHT22;6813;60.352;15.746;2024-03-02T09:17:12;4.80;99.90
13482;DHT22;6813;60.352;15.746;2024-03-02T09:19:39;4.70;99.90
13482;DHT22;6813;60.352;15.746;2024-03-02T09:22:05;4.80;99.90
13482;DHT22;6813;60.352;15.746;2024-03-02T09:24:32;4.60;99.90
13482;DHT22;6813;60.352;15.746;2024-03-02T09:26:59;4.50;99.90
13482;DHT22;6813;60.352;15.746;2024-03-02T09:29:24;4.50;99.90
13482;DHT22;6813;60.352;15.746;2024-03-02T09:31:50;4.60;99.90
13482;DHT22;6813;60.352;15.746;2024-03-02T09:34:16;4.70;99.90
13482;DHT22;6813;60.352;15.746;2024-03-02T09:36:42;4.90;99.90
13482;DHT22;6813;60.352;15.746;2024-03-02T09:39:09;4.90;99.90
13482;DHT22;6813;60.352;15.746;2024-03-02T09:41:38;4.80;99.90
13482;DHT22;6813;60.352;15.746;2024-03-02T09:44:05;4.70;99.90
13482;DHT22;6813;60.352;15.746;2024-03-02T09:46:33;4.60;99.90
13482;DHT22;6813;60.352;15.746;2024-03-02T09:49:01;4.70;99.90
13482;DHT22;6813;60.352;15.746;2024-03-02T09:51:26;4.70;99.90
13482;DHT22;6813;60.352;15.746;2024-03-02T09:53:54;4.70;99.90
13482;DHT22;6813;60.352;15.746;2024-03-02T09:56:21;4.70;99.90
13482;DHT22;6813;60.352;15.746;2024-03-02T09:58:47;4.60;99.90
13482;DHT22;6813;60.352;15.746;2024-03-02T10:01:13;4.50;99.90
13482;DHT22;6813;60.352;15.746;2024-03-02T10:03:39;4.50;99.90
13482;DHT22;6813;60.352;15.746;2024-03-02T10:06:37;4.50;99.90
13482;DHT22;6813;60.352;15.746;2024-03-02T10:09:03;4.50;99.90
13482;DHT22;6813;60.352;15.746;2024-03-02T10:11:35;4.60;99.90
13482;DHT22;6813;60.352;15.746;2024-03-02T10:14:07;4.50;99.90
13482;DHT22;6813;60.352;15.746;2024-03-02T10:16:34;4.40;99.90
13482;DHT22;6813;60.352;15.746;2024-03-02T10:19:18;4.40;99.90
13482;DHT22;6813;60.352;15.746;2024-03-02T10:21:54;4.40;99.90
13482;DHT22;6813;60.352;15.746;2024-03-02T10:24:23;4.30;99.90
13482;DHT22;6813;60.352;15.746;2024-03-02T10:26:50;4.30;99.90
13482;DHT22;6813;60.352;15.746;2024-03-02T10:29:16;4.20;99.90
13482;DHT22;6813;60.352;15.746;2024-03-02T10:31:44;4.10;99.90
13482;DHT22;6813;60.352;15.746;2024-03-02T10:34:13;4.20;99.90
13482;DHT22;6813;60.352;15.746;2024-03-02T10:36:43;4.10;99.90
13482;DHT22;6813;60.352;15.746;2024-03-02T10:39:09;4.20;99.90
13482;DHT22;6813;60.352;15.746;2024-03-02T10:41:37;4.20;99.90
13482;DHT22;6813;60.352;15.746;2024-03-02T10:44:07;4.10;99.90
13482;DHT22;6813;60.352;15.746;2024-03-02T10:46:36;4.10;99.90
13482;DHT22;6813;60.352;15.746;2024-03-02T10:49:05;4.10;99.90
13482;DHT22;6813;60.352;15.746;2024-03-02T10:51:34;4.10;99.90
13482;DHT22;6813;60.352;15.746;2024-03-02T10:54:03;4.30;99.90
13482;DHT22;6813;60.352;15.746;2024-03-02T10:56:33;4.40;99.90
13482;DHT22;6813;60.352;15.746;2024-03-02T10:59:32;4.50;99.90
13482;DHT22;6813;60.352;15.746;2024-03-02T11:02:00;4.70;99.90
13482;DHT22;6813;60.352;15.746;2024-03-02T11:04:27;4.80;99.90
13482;DHT22;6813;60.352;15.746;2024-03-02T11:07:00;4.80;99.90
13482;DHT22;6813;60.352;15.746;2024-03-02T11:09:28;4.90;99.90
13482;DHT22;6813;60.352;15.746;2024-03-02T11:12:03;4.80;99.90
13482;DHT22;6813;60.352;15.746;2024-03-02T11:14:32;4.70;99.90
13482;DHT22;6813;60.352;15.746;2024-03-02T11:16:59;4.80;99.90
13482;DHT22;6813;60.352;15.746;2024-03-02T11:19:27;4.80;99.90
13482;DHT22;6813;60.352;15.746;2024-03-02T11:21:53;4.80;99.90
13482;DHT22;6813;60.352;15.746;2024-03-02T11:26:51;4.70;99.90
13482;DHT22;6813;60.352;15.746;2024-03-02T11:32:04;4.70;99.90
13482;DHT22;6813;60.352;15.746;2024-03-02T11:34:33;4.80;99.90
13482;DHT22;6813;60.352;15.746;2024-03-02T11:37:00;4.90;99.90
13482;DHT22;6813;60.352;15.746;2024-03-02T11:39:27;4.80;99.90
13482;DHT22;6813;60.352;15.746;2024-03-02T11:41:54;4.70;99.90
13482;DHT22;6813;60.352;15.746;2024-03-02T11:44:20;4.70;99.90
13482;DHT22;6813;60.352;15.746;2024-03-02T11:46:52;4.60;99.90
13482;DHT22;6813;60.352;15.746;2024-03-02T11:49:37;4.60;99.90
13482;DHT22;6813;60.352;15.746;2024-03-02T11:52:05;4.60;99.90
13482;DHT22;6813;60.352;15.746;2024-03-02T11:54:32;4.50;99.90
13482;DHT22;6813;60.352;15.746;2024-03-02T11:57:02;4.50;99.90
13482;DHT22;6813;60.352;15.746;2024-03-02T11:59:31;4.60;99.90
13482;DHT22;6813;60.352;15.746;2024-03-02T12:01:58;4.60;99.90
13482;DHT22;6813;60.352;15.746;2024-03-02T12:04:25;4.70;99.90
13482;DHT22;6813;60.352;15.746;2024-03-02T12:07:00;4.80;99.90
13482;DHT22;6813;60.352;15.746;2024-03-02T12:09:27;4.70;99.90
13482;DHT22;6813;60.352;15.746;2024-03-02T12:12:06;4.60;99.90
13482;DHT22;6813;60.352;15.746;2024-03-02T12:14:33;4.80;99.90
13482;DHT22;6813;60.352;15.746;2024-03-02T12:17:01;4.80;99.90
13482;DHT22;6813;60.352;15.746;2024-03-02T12:19:27;4.80;99.90
13482;DHT22;6813;60.352;15.746;2024-03-02T12:21:56;4.80;99.90
13482;DHT22;6813;60.352;15.746;2024-03-02T12:24:26;4.80;99.90
13482;DHT22;6813;60.352;15.746;2024-03-02T12:26:53;4.80;99.90
13482;DHT22;6813;60.352;15.746;2024-03-02T12:29:20;4.90;99.90
13482;DHT22;6813;60.352;15.746;2024-03-02T12:31:50;4.90;99.90
13482;DHT22;6813;60.352;15.746;2024-03-02T12:34:18;4.90;99.90
13482;DHT22;6813;60.352;15.746;2024-03-02T12:36:48;4.80;99.90
13482;DHT22;6813;60.352;15.746;2024-03-02T12:39:19;4.80;99.90
13482;DHT22;6813;60.352;15.746;2024-03-02T12:41:46;4.90;99.90
13482;DHT22;6813;60.352;15.746;2024-03-02T12:44:12;4.80;99.90
13482;DHT22;6813;60.352;15.746;2024-03-02T12:46:38;4.70;99.90
13482;DHT22;6813;60.352;15.746;2024-03-02T12:49:11;4.80;99.90
13482;DHT22;6813;60.352;15.746;2024-03-02T12:51:41;4.70;99.90
13482;DHT22;6813;60.352;15.746;2024-03-02T12:54:08;4.80;99.90
13482;DHT22;6813;60.352;15.746;2024-03-02T12:56:36;4.70;99.90
13482;DHT22;6813;60.352;15.746;2024-03-02T12:59:03;4.80;99.90
13482;DHT22;6813;60.352;15.746;2024-03-02T13:01:29;4.80;99.90
13482;DHT22;6813;60.352;15.746;2024-03-02T13:03:55;4.80;99.90
13482;DHT22;6813;60.352;15.746;2024-03-02T13:06:25;4.70;99.90
13482;DHT22;6813;60.352;15.746;2024-03-02T13:08:54;4.70;99.90
13482;DHT22;6813;60.352;15.746;2024-03-02T13:11:22;4.80;99.90
13482;DHT22;6813;60.352;15.746;2024-03-02T13:13:49;4.70;99.90
13482;DHT22;6813;60.352;15.746;2024-03-02T13:16:16;4.60;99.90
13482;DHT22;6813;60.352;15.746;2024-03-02T13:18:44;4.70;99.90
13482;DHT22;6813;60.352;15.746;2024-03-02T13:21:10;4.70;99.90
13482;DHT22;6813;60.352;15.746;2024-03-02T13:23:36;4.70;99.90
13482;DHT22;6813;60.352;15.746;2024-03-02T13:26:02;4.70;99.90
13482;DHT22;6813;60.352;15.746;2024-03-02T13:28:28;4.70;99.90
13482;DHT22;6813;60.352;15.746;2024-03-02T13:30:54;4.70;99.90
13482;DHT22;6813;60.352;15.746;2024-03-02T13:33:19;4.70;99.90
13482;DHT22;6813;60.352;15.746;2024-03-02T13:35:51;4.80;99.90
13482;DHT22;6813;60.352;15.746;2024-03-02T13:38:20;4.70;99.90
13482;DHT22;6813;60.352;15.746;2024-03-02T13:40:48;4.70;99.90
13482;DHT22;6813;60.352;15.746;2024-03-02T13:43:17;4.70;99.90
13482;DHT22;6813;60.352;15.746;2024-03-02T13:45:43;4.80;99.90
13482;DHT22;6813;60.352;15.746;2024-03-02T13:48:09;4.80;99.90
13482;DHT22;6813;60.352;15.746;2024-03-02T13:50:35;5.00;99.90
13482;DHT22;6813;60.352;15.746;2024-03-02T13:53:01;5.00;99.90
13482;DHT22;6813;60.352;15.746;2024-03-02T13:55:28;5.00;99.90
13482;DHT22;6813;60.352;15.746;2024-03-02T13:57:54;5.00;99.90
13482;DHT22;6813;60.352;15.746;2024-03-02T14:00:20;4.80;99.90
13482;DHT22;6813;60.352;15.746;2024-03-02T14:02:46;4.70;99.90
13482;DHT22;6813;60.352;15.746;2024-03-02T14:05:15;4.70;99.90
13482;DHT22;6813;60.352;15.746;2024-03-02T14:07:41;4.70;99.90
13482;DHT22;6813;60.352;15.746;2024-03-02T14:10:08;4.70;99.90
13482;DHT22;6813;60.352;15.746;2024-03-02T14:12:33;4.70;99.90
13482;DHT22;6813;60.352;15.746;2024-03-02T14:15:01;4.80;99.90
13482;DHT22;6813;60.352;15.746;2024-03-02T14:17:28;5.00;99.90
13482;DHT22;6813;60.352;15.746;2024-03-02T14:19:54;5.00;99.90
13482;DHT22;6813;60.352;15.746;2024-03-02T14:22:20;5.10;99.90
13482;DHT22;6813;60.352;15.746;2024-03-02T14:24:48;5.00;99.90
13482;DHT22;6813;60.352;15.746;2024-03-02T14:27:14;5.10;99.90
13482;DHT22;6813;60.352;15.746;2024-03-02T14:29:42;5.20;99.90
13482;DHT22;6813;60.352;15.746;2024-03-02T14:32:09;5.30;99.90
13482;DHT22;6813;60.352;15.746;2024-03-02T14:34:34;5.30;99.90
13482;DHT22;6813;60.352;15.746;2024-03-02T14:37:00;5.30;99.90
13482;DHT22;6813;60.352;15.746;2024-03-02T14:39:26;5.30;99.90
13482;DHT22;6813;60.352;15.746;2024-03-02T14:41:52;5.20;99.90
13482;DHT22;6813;60.352;15.746;2024-03-02T14:44:20;5.20;99.90
13482;DHT22;6813;60.352;15.746;2024-03-02T14:46:49;5.10;99.90
13482;DHT22;6813;60.352;15.746;2024-03-02T14:49:16;5.00;99.90
13482;DHT22;6813;60.352;15.746;2024-03-02T14:51:41;4.90;99.90
13482;DHT22;6813;60.352;15.746;2024-03-02T14:54:08;4.90;99.90
13482;DHT22;6813;60.352;15.746;2024-03-02T14:56:33;4.90;99.90
13482;DHT22;6813;60.352;15.746;2024-03-02T14:58:59;5.00;99.90
13482;DHT22;6813;60.352;15.746;2024-03-02T15:01:25;5.10;99.90
13482;DHT22;6813;60.352;15.746;2024-03-02T15:03:51;5.20;99.90
13482;DHT22;6813;60.352;15.746;2024-03-02T15:06:17;5.10;99.90
13482;DHT22;6813;60.352;15.746;2024-03-02T15:08:44;5.10;99.90
13482;DHT22;6813;60.352;15.746;2024-03-02T15:11:12;5.10;99.90
13482;DHT22;6813;60.352;15.746;2024-03-02T15:13:38;5.10;99.90
13482;DHT22;6813;60.352;15.746;2024-03-02T15:16:04;5.20;99.90
13482;DHT22;6813;60.352;15.746;2024-03-02T15:18:30;5.10;99.90
13482;DHT22;6813;60.352;15.746;2024-03-02T15:20:56;5.10;99.90
13482;DHT22;6813;60.352;15.746;2024-03-02T15:23:21;5.00;99.90
13482;DHT22;6813;60.352;15.746;2024-03-02T15:25:47;5.10;99.90
13482;DHT22;6813;60.352;15.746;2024-03-02T15:28:13;5.10;99.90
13482;DHT22;6813;60.352;15.746;2024-03-02T15:30:39;5.20;99.90
13482;DHT22;6813;60.352;15.746;2024-03-02T15:33:05;5.10;99.90
13482;DHT22;6813;60.352;15.746;2024-03-02T15:35:31;5.20;99.90
13482;DHT22;6813;60.352;15.746;2024-03-02T15:37:57;5.30;99.90
13482;DHT22;6813;60.352;15.746;2024-03-02T15:40:24;5.30;99.90
13482;DHT22;6813;60.352;15.746;2024-03-02T15:42:51;5.40;99.90
13482;DHT22;6813;60.352;15.746;2024-03-02T15:45:17;5.30;99.90
13482;DHT22;6813;60.352;15.746;2024-03-02T15:47:43;5.20;99.90
13482;DHT22;6813;60.352;15.746;2024-03-02T15:50:09;5.20;99.90